sensor_id;sensor_type;location;lat;lon;timestamp;pressure;altitude;pressure_sealevel;temperature;humidity
62680;BME280;68213;40.528;44.712;2023-08-06T00:00:32;80831.81;;;14.96;58.60
62680;BME280;68213;40.528;44.712;2023-08-06T00:01:35;80826.50;;;14.96;58.63
62680;BME280;68213;40.528;44.712;2023-08-06T00:02:36;80822.56;;;14.97;58.49
62680;BME280;68213;40.528;44.712;2023-08-06T00:03:40;80825.72;;;14.94;58.36
62680;BME280;68213;40.528;44.712;2023-08-06T00:04:41;80815.88;;;14.80;58.46
62680;BME280;68213;40.528;44.712;2023-08-06T00:05:42;80821.63;;;14.90;58.54
62680;BME280;68213;40.528;44.712;2023-08-06T00:06:43;80827.03;;;14.93;58.81
62680;BME280;68213;40.528;44.712;2023-08-06T00:07:44;80819.06;;;14.93;58.59
62680;BME280;68213;40.528;44.712;2023-08-06T00:08:48;80817.78;;;14.94;58.95
62680;BME280;68213;40.528;44.712;2023-08-06T00:09:49;80824.00;;;14.84;59.49
62680;BME280;68213;40.528;44.712;2023-08-06T00:10:49;80827.84;;;14.81;58.40
62680;BME280;68213;40.528;44.712;2023-08-06T00:11:50;80818.03;;;14.84;58.42
62680;BME280;68213;40.528;44.712;2023-08-06T00:12:51;80818.72;;;14.84;58.63
62680;BME280;68213;40.528;44.712;2023-08-06T00:13:51;80815.97;;;14.82;58.59
62680;BME280;68213;40.528;44.712;2023-08-06T00:14:53;80818.03;;;14.84;58.68
62680;BME280;68213;40.528;44.712;2023-08-06T00:17:04;80821.94;;;14.83;58.27
62680;BME280;68213;40.528;44.712;2023-08-06T00:18:05;80814.59;;;14.81;58.45
62680;BME280;68213;40.528;44.712;2023-08-06T00:19:06;80815.31;;;14.82;58.75
62680;BME280;68213;40.528;44.712;2023-08-06T00:20:07;80809.31;;;14.81;58.83
62680;BME280;68213;40.528;44.712;2023-08-06T00:21:08;80811.09;;;14.77;58.43
62680;BME280;68213;40.528;44.712;2023-08-06T00:22:09;80812.72;;;14.84;58.37
62680;BME280;68213;40.528;44.712;2023-08-06T00:23:10;80818.63;;;14.82;58.45
62680;BME280;68213;40.528;44.712;2023-08-06T00:24:10;80813.44;;;14.84;58.40
62680;BME280;68213;40.528;44.712;2023-08-06T00:25:11;80816.06;;;14.84;58.09
62680;BME280;68213;40.528;44.712;2023-08-06T00:26:12;80817.44;;;14.85;57.93
62680;BME280;68213;40.528;44.712;2023-08-06T00:27:13;80814.69;;;14.83;58.19
62680;BME280;68213;40.528;44.712;2023-08-06T00:28:13;80813.44;;;14.84;58.09
62680;BME280;68213;40.528;44.712;2023-08-06T00:29:14;80812.72;;;14.84;58.13
62680;BME280;68213;40.528;44.712;2023-08-06T00:30:15;80813.44;;;14.84;58.02
62680;BME280;68213;40.528;44.712;2023-08-06T00:31:16;80816.16;;;14.86;57.88
62680;BME280;68213;40.528;44.712;2023-08-06T00:32:17;80812.81;;;14.86;57.72
62680;BME280;68213;40.528;44.712;2023-08-06T00:33:18;80815.47;;;14.86;58.34
62680;BME280;68213;40.528;44.712;2023-08-06T00:34:21;80814.19;;;14.87;57.91
62680;BME280;68213;40.528;44.712;2023-08-06T00:35:21;80804.28;;;14.87;57.80
62680;BME280;68213;40.528;44.712;2023-08-06T00:36:22;80814.28;;;14.89;57.72
62680;BME280;68213;40.528;44.712;2023-08-06T00:37:23;80814.34;;;14.91;57.93
62680;BME280;68213;40.528;44.712;2023-08-06T00:38:26;80806.41;;;14.91;57.73
62680;BME280;68213;40.528;44.712;2023-08-06T00:39:27;80815.06;;;14.91;57.69
62680;BME280;68213;40.528;44.712;2023-08-06T00:40:27;80814.47;;;14.93;57.59
62680;BME280;68213;40.528;44.712;2023-08-06T00:41:30;80809.16;;;14.93;57.96
62680;BME280;68213;40.528;44.712;2023-08-06T00:42:31;80801.91;;;14.94;57.87
62680;BME280;68213;40.528;44.712;2023-08-06T00:43:32;80807.19;;;14.94;57.75
62680;BME280;68213;40.528;44.712;2023-08-06T00:44:33;80801.91;;;14.94;57.90
62680;BME280;68213;40.528;44.712;2023-08-06T00:45:35;80807.28;;;14.96;57.93
62680;BME280;68213;40.528;44.712;2023-08-06T00:46:36;80783.25;;;14.75;57.69
62680;BME280;68213;40.528;44.712;2023-08-06T00:47:37;80806.50;;;14.93;57.75
62680;BME280;68213;40.528;44.712;2023-08-06T00:48:42;80813.78;;;14.93;57.79
62680;BME280;68213;40.528;44.712;2023-08-06T00:49:43;80816.44;;;14.93;57.94
62680;BME280;68213;40.528;44.712;2023-08-06T00:50:43;80818.97;;;14.90;57.70
62680;BME280;68213;40.528;44.712;2023-08-06T00:51:44;80809.66;;;14.89;58.15
62680;BME280;68213;40.528;44.712;2023-08-06T00:52:45;80805.13;;;14.76;58.25
62680;BME280;68213;40.528;44.712;2023-08-06T00:53:47;80813.13;;;14.78;58.39
62680;BME280;68213;40.528;44.712;2023-08-06T00:54:49;80819.28;;;14.53;61.36
62680;BME280;68213;40.528;44.712;2023-08-06T00:55:50;80818.06;;;14.40;61.59
62680;BME280;68213;40.528;44.712;2023-08-06T00:56:51;80810.44;;;14.32;61.64
62680;BME280;68213;40.528;44.712;2023-08-06T00:57:53;80819.56;;;14.29;61.97
62680;BME280;68213;40.528;44.712;2023-08-06T00:58:56;80830.66;;;14.25;61.54
62680;BME280;68213;40.528;44.712;2023-08-06T00:59:57;80819.69;;;14.17;62.54
62680;BME280;68213;40.528;44.712;2023-08-06T01:00:58;80825.88;;;14.08;62.25
62680;BME280;68213;40.528;44.712;2023-08-06T01:01:59;80824.41;;;14.05;62.42
62680;BME280;68213;40.528;44.712;2023-08-06T01:03:00;80826.88;;;14.01;63.04
62680;BME280;68213;40.528;44.712;2023-08-06T01:04:03;80818.66;;;13.94;63.20
62680;BME280;68213;40.528;44.712;2023-08-06T01:05:06;80816.59;;;13.93;63.24
62680;BME280;68213;40.528;44.712;2023-08-06T01:06:09;80815.44;;;13.82;63.93
62680;BME280;68213;40.528;44.712;2023-08-06T01:08:57;80820.81;;;13.84;62.61
62680;BME280;68213;40.528;44.712;2023-08-06T01:11:40;80826.72;;;13.83;63.15
62680;BME280;68213;40.528;44.712;2023-08-06T01:13:00;80829.16;;;13.78;63.52
62680;BME280;68213;40.528;44.712;2023-08-06T01:14:44;80832.28;;;13.75;63.73
62680;BME280;68213;40.528;44.712;2023-08-06T01:15:49;80829.56;;;13.73;63.86
62680;BME280;68213;40.528;44.712;2023-08-06T01:16:51;80828.69;;;13.68;63.87
62680;BME280;68213;40.528;44.712;2023-08-06T01:17:52;80823.09;;;13.76;63.37
62680;BME280;68213;40.528;44.712;2023-08-06T01:18:53;80824.47;;;13.77;63.70
62680;BME280;68213;40.528;44.712;2023-08-06T01:19:53;80823.19;;;13.78;63.62
62680;BME280;68213;40.528;44.712;2023-08-06T01:20:54;80826.00;;;13.82;63.25
62680;BME280;68213;40.528;44.712;2023-08-06T01:21:55;80822.09;;;13.83;63.17
62680;BME280;68213;40.528;44.712;2023-08-06T01:22:56;80820.66;;;13.80;63.43
62680;BME280;68213;40.528;44.712;2023-08-06T01:23:57;80820.53;;;13.78;63.98
62680;BME280;68213;40.528;44.712;2023-08-06T01:25:00;80821.81;;;13.77;64.05
62680;BME280;68213;40.528;44.712;2023-08-06T01:26:36;80825.44;;;13.70;64.23
62680;BME280;68213;40.528;44.712;2023-08-06T01:27:49;80822.69;;;13.68;64.36
62680;BME280;68213;40.528;44.712;2023-08-06T01:29:08;80826.13;;;13.70;64.17
62680;BME280;68213;40.528;44.712;2023-08-06T01:30:17;80827.31;;;13.67;64.55
62680;BME280;68213;40.528;44.712;2023-08-06T01:31:27;80831.31;;;13.68;64.70
62680;BME280;68213;40.528;44.712;2023-08-06T01:32:32;80822.69;;;13.68;64.63
62680;BME280;68213;40.528;44.712;2023-08-06T01:33:35;80827.97;;;13.68;64.54
62680;BME280;68213;40.528;44.712;2023-08-06T01:34:39;80827.78;;;13.63;64.91
62680;BME280;68213;40.528;44.712;2023-08-06T01:35:42;80822.13;;;13.55;65.00
62680;BME280;68213;40.528;44.712;2023-08-06T01:36:43;80805.50;;;13.39;65.72
62680;BME280;68213;40.528;44.712;2023-08-06T01:37:45;80830.34;;;13.47;65.85
62680;BME280;68213;40.528;44.712;2023-08-06T01:38:47;80824.97;;;13.45;65.65
62680;BME280;68213;40.528;44.712;2023-08-06T01:39:50;80825.75;;;13.48;65.58
62680;BME280;68213;40.528;44.712;2023-08-06T01:40:50;80827.13;;;13.49;65.68
62680;BME280;68213;40.528;44.712;2023-08-06T01:41:51;80822.63;;;13.52;65.67
62680;BME280;68213;40.528;44.712;2023-08-06T01:42:52;80825.75;;;13.48;65.90
62680;BME280;68213;40.528;44.712;2023-08-06T01:43:52;80825.84;;;13.50;65.63
62680;BME280;68213;40.528;44.712;2023-08-06T01:44:53;80821.94;;;13.51;65.91
62680;BME280;68213;40.528;44.712;2023-08-06T01:45:54;80821.94;;;13.51;66.04
62680;BME280;68213;40.528;44.712;2023-08-06T01:46:57;80805.28;;;13.35;66.22
62680;BME280;68213;40.528;44.712;2023-08-06T01:47:58;80827.00;;;13.47;66.45
62680;BME280;68213;40.528;44.712;2023-08-06T01:48:58;80826.34;;;13.46;66.33
62680;BME280;68213;40.528;44.712;2023-08-06T01:49:59;80823.59;;;13.44;66.41
62680;BME280;68213;40.528;44.712;2023-08-06T01:51:03;80830.84;;;13.44;66.57
62680;BME280;68213;40.528;44.712;2023-08-06T01:52:05;80824.09;;;13.41;66.78
62680;BME280;68213;40.528;44.712;2023-08-06T01:53:05;80829.25;;;13.39;66.88
62680;BME280;68213;40.528;44.712;2023-08-06T01:54:06;80823.41;;;13.40;67.04
62680;BME280;68213;40.528;44.712;2023-08-06T01:55:07;80829.47;;;13.43;66.67
62680;BME280;68213;40.528;44.712;2023-08-06T01:56:08;80824.19;;;13.43;66.76
62680;BME280;68213;40.528;44.712;2023-08-06T01:57:08;80832.88;;;13.45;66.69
62680;BME280;68213;40.528;44.712;2023-08-06T01:58:09;80828.28;;;13.46;66.70
62680;BME280;68213;40.528;44.712;2023-08-06T01:59:10;80820.75;;;13.40;66.53
62680;BME280;68213;40.528;44.712;2023-08-06T02:00:11;80833.19;;;13.52;66.81
62680;BME280;68213;40.528;44.712;2023-08-06T02:01:12;80832.69;;;13.55;66.66
62680;BME280;68213;40.528;44.712;2023-08-06T02:02:16;80826.03;;;13.54;66.69
62680;BME280;68213;40.528;44.712;2023-08-06T02:03:16;80828.78;;;13.56;66.71
62680;BME280;68213;40.528;44.712;2023-08-06T02:04:19;80836.09;;;13.58;66.65
62680;BME280;68213;40.528;44.712;2023-08-06T02:05:20;80826.34;;;13.46;66.76
62680;BME280;68213;40.528;44.712;2023-08-06T02:06:21;80835.50;;;13.59;66.62
62680;BME280;68213;40.528;44.712;2023-08-06T02:07:22;80835.63;;;13.61;66.51
62680;BME280;68213;40.528;44.712;2023-08-06T02:08:25;80834.94;;;13.61;66.68
62680;BME280;68213;40.528;44.712;2023-08-06T02:09:27;80837.59;;;13.61;66.85
62680;BME280;68213;40.528;44.712;2023-08-06T02:10:30;80835.63;;;13.61;66.84
62680;BME280;68213;40.528;44.712;2023-08-06T02:11:31;80839.53;;;13.60;66.92
62680;BME280;68213;40.528;44.712;2023-08-06T02:12:35;80836.22;;;13.60;66.95
62680;BME280;68213;40.528;44.712;2023-08-06T02:13:36;80838.16;;;13.59;67.12
62680;BME280;68213;40.528;44.712;2023-08-06T02:14:36;80837.47;;;13.59;67.20
62680;BME280;68213;40.528;44.712;2023-08-06T02:15:44;80836.09;;;13.58;67.45
62680;BME280;68213;40.528;44.712;2023-08-06T02:16:47;80831.41;;;13.56;67.26
62680;BME280;68213;40.528;44.712;2023-08-06T02:17:51;80840.72;;;13.57;67.23
62680;BME280;68213;40.528;44.712;2023-08-06T02:19:12;80835.22;;;13.53;67.53
62680;BME280;68213;40.528;44.712;2023-08-06T02:20:12;80836.69;;;13.56;67.33
62680;BME280;68213;40.528;44.712;2023-08-06T02:21:13;80839.13;;;13.52;67.86
62680;BME280;68213;40.528;44.712;2023-08-06T02:22:14;80836.50;;;13.52;67.82
62680;BME280;68213;40.528;44.712;2023-08-06T02:23:15;80834.66;;;13.55;67.70
62680;BME280;68213;40.528;44.712;2023-08-06T02:24:15;80835.44;;;13.57;67.82
62680;BME280;68213;40.528;44.712;2023-08-06T02:25:16;80827.91;;;13.52;67.44
62680;BME280;68213;40.528;44.712;2023-08-06T02:26:17;80835.44;;;13.57;67.73
62680;BME280;68213;40.528;44.712;2023-08-06T02:27:18;80834.94;;;13.61;67.76
62680;BME280;68213;40.528;44.712;2023-08-06T02:28:18;80836.69;;;13.56;67.83
62680;BME280;68213;40.528;44.712;2023-08-06T02:29:19;80838.16;;;13.59;67.87
62680;BME280;68213;40.528;44.712;2023-08-06T02:30:23;80842.75;;;13.59;67.87
62680;BME280;68213;40.528;44.712;2023-08-06T02:31:24;80837.59;;;13.61;68.00
62680;BME280;68213;40.528;44.712;2023-08-06T02:32:24;80835.63;;;13.61;67.87
62680;BME280;68213;40.528;44.712;2023-08-06T02:33:25;80837.00;;;13.62;67.98
62680;BME280;68213;40.528;44.712;2023-08-06T02:34:26;80828.47;;;13.64;67.83
62680;BME280;68213;40.528;44.712;2023-08-06T02:35:27;80838.53;;;13.68;67.70
62680;BME280;68213;40.528;44.712;2023-08-06T02:36:28;80830.72;;;13.70;67.74
62680;BME280;68213;40.528;44.712;2023-08-06T02:37:29;80829.47;;;13.71;67.67
62680;BME280;68213;40.528;44.712;2023-08-06T02:38:31;80837.47;;;13.73;67.69
62680;BME280;68213;40.528;44.712;2023-08-06T02:39:32;80829.56;;;13.73;67.73
62680;BME280;68213;40.528;44.712;2023-08-06T02:40:34;80821.53;;;13.71;67.73
62680;BME280;68213;40.528;44.712;2023-08-06T02:41:35;80838.84;;;13.74;67.91
62680;BME280;68213;40.528;44.712;2023-08-06T02:42:36;80831.13;;;13.78;67.96
62680;BME280;68213;40.528;44.712;2023-08-06T02:43:36;80838.38;;;13.77;67.93
62680;BME280;68213;40.528;44.712;2023-08-06T02:44:40;80831.41;;;13.84;67.51
62680;BME280;68213;40.528;44.712;2023-08-06T02:45:42;80832.94;;;13.89;67.42
62680;BME280;68213;40.528;44.712;2023-08-06T02:46:44;80835.41;;;13.99;66.90
62680;BME280;68213;40.528;44.712;2023-08-06T02:47:45;80834.31;;;14.04;66.92
62680;BME280;68213;40.528;44.712;2023-08-06T02:48:46;80833.22;;;14.09;66.75
62680;BME280;68213;40.528;44.712;2023-08-06T02:49:47;80839.28;;;14.12;66.63
62680;BME280;68213;40.528;44.712;2023-08-06T02:50:47;80830.28;;;14.17;66.38
62680;BME280;68213;40.528;44.712;2023-08-06T02:51:48;80835.16;;;14.23;66.32
62680;BME280;68213;40.528;44.712;2023-08-06T02:52:49;80834.75;;;14.28;66.36
62680;BME280;68213;40.528;44.712;2023-08-06T02:53:50;80821.25;;;14.22;65.83
62680;BME280;68213;40.528;44.712;2023-08-06T02:54:50;80835.13;;;14.37;65.80
62680;BME280;68213;40.528;44.712;2023-08-06T02:55:54;80829.50;;;14.44;65.38
62680;BME280;68213;40.528;44.712;2023-08-06T02:56:55;80837.72;;;14.51;65.46
62680;BME280;68213;40.528;44.712;2023-08-06T02:57:56;80830.75;;;14.57;65.08
62680;BME280;68213;40.528;44.712;2023-08-06T02:58:57;80824.38;;;14.63;65.23
62680;BME280;68213;40.528;44.712;2023-08-06T02:59:58;80828.38;;;14.64;65.02
62680;BME280;68213;40.528;44.712;2023-08-06T03:02:03;80829.13;;;14.80;64.78
62680;BME280;68213;40.528;44.712;2023-08-06T03:03:04;80831.94;;;14.84;64.49
62680;BME280;68213;40.528;44.712;2023-08-06T03:04:05;80836.22;;;14.91;64.46
62680;BME280;68213;40.528;44.712;2023-08-06T03:05:06;80815.97;;;14.82;64.34
62680;BME280;68213;40.528;44.712;2023-08-06T03:06:07;80830.34;;;14.93;64.11
62680;BME280;68213;40.528;44.712;2023-08-06T03:07:08;80831.28;;;15.00;64.22
62680;BME280;68213;40.528;44.712;2023-08-06T03:08:09;80835.47;;;15.05;64.48
62680;BME280;68213;40.528;44.712;2023-08-06T03:09:09;80832.22;;;15.06;64.33
62680;BME280;68213;40.528;44.712;2023-08-06T03:10:10;80827.53;;;15.05;63.56
62680;BME280;68213;40.528;44.712;2023-08-06T03:11:11;80829.34;;;15.16;62.92
62680;BME280;68213;40.528;44.712;2023-08-06T03:12:11;80829.53;;;15.20;63.03
62680;BME280;68213;40.528;44.712;2023-08-06T03:13:16;80828.41;;;15.26;63.86
62680;BME280;68213;40.528;44.712;2023-08-06T03:14:17;80821.47;;;15.18;63.83
62680;BME280;68213;40.528;44.712;2023-08-06T03:15:18;80833.88;;;15.30;63.70
62680;BME280;68213;40.528;44.712;2023-08-06T03:16:19;80825.94;;;15.30;63.78
62680;BME280;68213;40.528;44.712;2023-08-06T03:17:19;80829.88;;;15.29;63.55
62680;BME280;68213;40.528;44.712;2023-08-06T03:18:20;80826.00;;;15.32;63.72
62680;BME280;68213;40.528;44.712;2023-08-06T03:19:22;80822.28;;;15.37;63.36
62680;BME280;68213;40.528;44.712;2023-08-06T03:20:22;80820.53;;;15.44;63.28
62680;BME280;68213;40.528;44.712;2023-08-06T03:21:23;80815.84;;;15.42;63.63
62680;BME280;68213;40.528;44.712;2023-08-06T03:22:26;80820.03;;;15.47;62.60
62680;BME280;68213;40.528;44.712;2023-08-06T03:23:27;80813.34;;;15.46;61.88
62680;BME280;68213;40.528;44.712;2023-08-06T03:24:30;80824.47;;;15.59;62.69
62680;BME280;68213;40.528;44.712;2023-08-06T03:25:30;80820.72;;;15.64;63.38
62680;BME280;68213;40.528;44.712;2023-08-06T03:26:31;80821.38;;;15.64;63.30
62680;BME280;68213;40.528;44.712;2023-08-06T03:27:32;80826.63;;;15.62;62.39
62680;BME280;68213;40.528;44.712;2023-08-06T03:28:33;80822.84;;;15.67;61.62
62680;BME280;68213;40.528;44.712;2023-08-06T03:29:33;80818.41;;;15.72;61.34
62680;BME280;68213;40.528;44.712;2023-08-06T03:30:34;80806.94;;;15.67;61.68
62680;BME280;68213;40.528;44.712;2023-08-06T03:31:35;80823.84;;;15.76;61.86
62680;BME280;68213;40.528;44.712;2023-08-06T03:32:35;80821.97;;;15.79;62.05
62680;BME280;68213;40.528;44.712;2023-08-06T03:33:36;80823.25;;;15.78;62.10
62680;BME280;68213;40.528;44.712;2023-08-06T03:34:37;80816.06;;;15.80;61.67
62680;BME280;68213;40.528;44.712;2023-08-06T03:35:38;80821.56;;;15.84;62.58
62680;BME280;68213;40.528;44.712;2023-08-06T03:36:39;80814.88;;;15.83;62.16
62680;BME280;68213;40.528;44.712;2023-08-06T03:37:39;80819.75;;;15.89;62.14
62680;BME280;68213;40.528;44.712;2023-08-06T03:38:40;80814.63;;;15.93;60.96
62680;BME280;68213;40.528;44.712;2023-08-06T03:39:42;80805.91;;;15.91;60.77
62680;BME280;68213;40.528;44.712;2023-08-06T03:40:43;80815.63;;;16.02;59.85
62680;BME280;68213;40.528;44.712;2023-08-06T03:41:44;80816.47;;;16.07;61.32
62680;BME280;68213;40.528;44.712;2023-08-06T03:42:44;80816.53;;;16.09;61.57
62680;BME280;68213;40.528;44.712;2023-08-06T03:43:45;80817.91;;;16.10;61.06
62680;BME280;68213;40.528;44.712;2023-08-06T03:44:46;80822.78;;;16.15;60.39
62680;BME280;68213;40.528;44.712;2023-08-06T03:45:48;80826.19;;;16.18;60.18
62680;BME280;68213;40.528;44.712;2023-08-06T03:46:48;80815.59;;;16.18;60.52
62680;BME280;68213;40.528;44.712;2023-08-06T03:47:49;80820.97;;;16.20;60.56
62680;BME280;68213;40.528;44.712;2023-08-06T03:48:50;80823.09;;;16.24;60.50
62680;BME280;68213;40.528;44.712;2023-08-06T03:49:51;80815.22;;;16.26;60.52
62680;BME280;68213;40.528;44.712;2023-08-06T03:50:51;80825.22;;;16.27;59.71
62680;BME280;68213;40.528;44.712;2023-08-06T03:51:52;80813.88;;;16.25;59.05
62680;BME280;68213;40.528;44.712;2023-08-06T03:52:53;80818.28;;;16.36;59.16
62680;BME280;68213;40.528;44.712;2023-08-06T03:53:53;80821.09;;;16.40;58.55
62680;BME280;68213;40.528;44.712;2023-08-06T03:54:54;80824.41;;;16.41;59.09
62680;BME280;68213;40.528;44.712;2023-08-06T03:55:55;80811.75;;;16.39;60.33
62680;BME280;68213;40.528;44.712;2023-08-06T03:57:00;80811.59;;;16.35;58.30
62680;BME280;68213;40.528;44.712;2023-08-06T03:58:03;80818.50;;;16.42;57.94
62680;BME280;68213;40.528;44.712;2023-08-06T03:59:03;80817.38;;;16.47;59.06
62680;BME280;68213;40.528;44.712;2023-08-06T04:00:04;80818.75;;;16.48;58.56
62680;BME280;68213;40.528;44.712;2023-08-06T04:01:06;80814.97;;;16.54;58.22
62680;BME280;68213;40.528;44.712;2023-08-06T04:02:06;80822.22;;;16.53;57.78
62680;BME280;68213;40.528;44.712;2023-08-06T04:03:07;80820.41;;;16.58;58.79
62680;BME280;68213;40.528;44.712;2023-08-06T04:04:08;80820.41;;;16.58;57.18
62680;BME280;68213;40.528;44.712;2023-08-06T04:05:09;80825.28;;;16.63;57.19
62680;BME280;68213;40.528;44.712;2023-08-06T04:06:10;80828.78;;;16.68;57.47
62680;BME280;68213;40.528;44.712;2023-08-06T04:07:10;80827.63;;;16.73;58.71
62680;BME280;68213;40.528;44.712;2023-08-06T04:08:11;80823.78;;;16.76;57.61
62680;BME280;68213;40.528;44.712;2023-08-06T04:09:12;80825.19;;;16.79;57.17
62680;BME280;68213;40.528;44.712;2023-08-06T04:10:13;80822.72;;;16.84;59.29
62680;BME280;68213;40.528;44.712;2023-08-06T04:11:14;80823.47;;;16.86;57.95
62680;BME280;68213;40.528;44.712;2023-08-06T04:12:15;80821.47;;;16.87;55.51
62680;BME280;68213;40.528;44.712;2023-08-06T04:13:15;80824.22;;;16.89;54.77
62680;BME280;68213;40.528;44.712;2023-08-06T04:14:16;80816.13;;;16.85;54.15
62680;BME280;68213;40.528;44.712;2023-08-06T04:15:17;80821.56;;;16.89;54.26
62680;BME280;68213;40.528;44.712;2023-08-06T04:16:18;80819.78;;;16.93;53.65
62680;BME280;68213;40.528;44.712;2023-08-06T04:17:19;80827.22;;;16.97;53.24
62680;BME280;68213;40.528;44.712;2023-08-06T04:18:24;80828.66;;;17.00;54.37
62680;BME280;68213;40.528;44.712;2023-08-06T04:19:24;80824.41;;;16.93;55.20
62680;BME280;68213;40.528;44.712;2023-08-06T04:20:25;80827.56;;;16.89;54.43
62680;BME280;68213;40.528;44.712;2023-08-06T04:21:26;80819.25;;;16.97;55.28
62680;BME280;68213;40.528;44.712;2023-08-06T04:22:26;80821.53;;;17.05;56.38
62680;BME280;68213;40.528;44.712;2023-08-06T04:23:27;80828.88;;;17.06;53.65
62680;BME280;68213;40.528;44.712;2023-08-06T04:24:28;80826.22;;;17.06;54.36
62680;BME280;68213;40.528;44.712;2023-08-06T04:25:29;80820.47;;;17.12;54.18
62680;BME280;68213;40.528;44.712;2023-08-06T04:26:30;80823.25;;;17.16;54.00
62680;BME280;68213;40.528;44.712;2023-08-06T04:27:30;80825.06;;;17.11;54.38
62680;BME280;68213;40.528;44.712;2023-08-06T04:28:31;80818.72;;;17.01;52.89
62680;BME280;68213;40.528;44.712;2023-08-06T04:29:32;80827.97;;;17.00;54.74
62680;BME280;68213;40.528;44.712;2023-08-06T04:30:32;80825.38;;;17.02;54.61
62680;BME280;68213;40.528;44.712;2023-08-06T04:31:33;80801.03;;;16.89;54.29
62680;BME280;68213;40.528;44.712;2023-08-06T04:32:34;80819.84;;;17.13;54.77
62680;BME280;68213;40.528;44.712;2023-08-06T04:33:35;80806.19;;;17.03;54.46
62680;BME280;68213;40.528;44.712;2023-08-06T04:34:36;80816.44;;;17.11;54.81
62680;BME280;68213;40.528;44.712;2023-08-06T04:35:37;80821.03;;;17.10;55.11
62680;BME280;68213;40.528;44.712;2023-08-06T04:36:38;80826.28;;;17.26;56.06
62680;BME280;68213;40.528;44.712;2023-08-06T04:37:39;80820.44;;;17.30;54.31
62680;BME280;68213;40.528;44.712;2023-08-06T04:38:40;80820.44;;;17.30;53.95
62680;BME280;68213;40.528;44.712;2023-08-06T04:39:45;80808.06;;;17.19;53.74
62680;BME280;68213;40.528;44.712;2023-08-06T04:40:46;80823.09;;;17.30;53.59
62680;BME280;68213;40.528;44.712;2023-08-06T04:41:46;80811.44;;;17.39;53.49
62680;BME280;68213;40.528;44.712;2023-08-06T04:42:47;80796.44;;;17.28;54.36
62680;BME280;68213;40.528;44.712;2023-08-06T04:43:48;80808.03;;;17.37;54.55
62680;BME280;68213;40.528;44.712;2023-08-06T04:44:49;80815.22;;;17.52;55.65
62680;BME280;68213;40.528;44.712;2023-08-06T04:45:53;80812.00;;;17.56;54.34
62680;BME280;68213;40.528;44.712;2023-08-06T04:46:54;80822.72;;;17.58;53.50
62680;BME280;68213;40.528;44.712;2023-08-06T04:47:54;80817.41;;;17.58;52.72
62680;BME280;68213;40.528;44.712;2023-08-06T04:48:56;80818.09;;;17.58;53.11
62680;BME280;68213;40.528;44.712;2023-08-06T04:49:57;80818.97;;;17.65;53.13
62680;BME280;68213;40.528;44.712;2023-08-06T04:50:58;80819.19;;;17.71;53.04
62680;BME280;68213;40.528;44.712;2023-08-06T04:51:59;80819.13;;;17.69;52.96
62680;BME280;68213;40.528;44.712;2023-08-06T04:53:00;80819.34;;;17.75;52.73
62680;BME280;68213;40.528;44.712;2023-08-06T04:54:00;80820.63;;;17.74;53.60
62680;BME280;68213;40.528;44.712;2023-08-06T04:55:01;80820.34;;;17.66;52.65
62680;BME280;68213;40.528;44.712;2023-08-06T04:56:04;80820.34;;;17.66;52.51
62680;BME280;68213;40.528;44.712;2023-08-06T04:57:05;80812.03;;;17.76;52.72
62680;BME280;68213;40.528;44.712;2023-08-06T04:58:05;80808.34;;;17.65;53.15
62680;BME280;68213;40.528;44.712;2023-08-06T04:59:06;80819.28;;;17.73;53.06
62680;BME280;68213;40.528;44.712;2023-08-06T05:00:07;80824.59;;;17.73;52.45
62680;BME280;68213;40.528;44.712;2023-08-06T05:01:08;80821.72;;;17.67;52.22
62680;BME280;68213;40.528;44.712;2023-08-06T05:02:09;80817.91;;;17.72;52.89
62680;BME280;68213;40.528;44.712;2023-08-06T05:03:10;80822.00;;;17.75;53.96
62680;BME280;68213;40.528;44.712;2023-08-06T05:04:10;80812.47;;;17.68;53.00
62680;BME280;68213;40.528;44.712;2023-08-06T05:05:11;80814.56;;;17.72;53.03
62680;BME280;68213;40.528;44.712;2023-08-06T05:06:12;80813.25;;;17.73;53.10
62680;BME280;68213;40.528;44.712;2023-08-06T05:07:12;80813.41;;;17.77;53.28
62680;BME280;68213;40.528;44.712;2023-08-06T05:08:14;80815.59;;;17.83;52.70
62680;BME280;68213;40.528;44.712;2023-08-06T05:09:18;80806.47;;;17.88;52.29
62680;BME280;68213;40.528;44.712;2023-08-06T05:10:20;80809.78;;;17.88;52.26
62680;BME280;68213;40.528;44.712;2023-08-06T05:11:21;80810.72;;;17.95;52.84
62680;BME280;68213;40.528;44.712;2023-08-06T05:12:22;80806.84;;;17.98;53.53
62680;BME280;68213;40.528;44.712;2023-08-06T05:13:22;80809.63;;;18.02;54.02
62680;BME280;68213;40.528;44.712;2023-08-06T05:14:23;80804.41;;;18.06;52.44
62680;BME280;68213;40.528;44.712;2023-08-06T05:15:24;80807.31;;;18.13;52.18
62680;BME280;68213;40.528;44.712;2023-08-06T05:16:26;80803.75;;;18.06;51.44
62680;BME280;68213;40.528;44.712;2023-08-06T05:17:26;80795.56;;;18.00;51.64
62680;BME280;68213;40.528;44.712;2023-08-06T05:18:27;80807.84;;;18.09;52.28
62680;BME280;68213;40.528;44.712;2023-08-06T05:19:28;80797.06;;;18.05;52.22
62680;BME280;68213;40.528;44.712;2023-08-06T05:20:29;80803.19;;;18.10;52.59
62680;BME280;68213;40.528;44.712;2023-08-06T05:21:30;80798.06;;;18.16;52.51
62680;BME280;68213;40.528;44.712;2023-08-06T05:22:30;80799.38;;;18.15;52.59
62680;BME280;68213;40.528;44.712;2023-08-06T05:23:31;80789.97;;;18.12;51.88
62680;BME280;68213;40.528;44.712;2023-08-06T05:24:32;80796.78;;;18.17;52.13
62680;BME280;68213;40.528;44.712;2023-08-06T05:25:36;80797.16;;;18.29;52.76
62680;BME280;68213;40.528;44.712;2023-08-06T05:26:37;80799.91;;;18.31;52.16
62680;BME280;68213;40.528;44.712;2023-08-06T05:27:38;80803.50;;;18.40;51.07
62680;BME280;68213;40.528;44.712;2023-08-06T05:28:41;80788.97;;;18.43;52.55